Terminal Aerodrome Forecast
Issued by NWS

Home | Current Version | Previous Version | Graphics & Text | Print | Product List | Glossary On
Versions: 1 2 3 4 5 6 7 8 9 10 11 12 13 14 15 16 17 18
000
FTUS42 KMHX 212104 AAB
TAFPGV
TAF AMD
KPGV 212104Z 2121/2218 35012G18KT P6SM VCSH OVC007
     FM220000 36004KT P6SM OVC007
     FM221000 36008KT P6SM SCT030
      AMD LTD TO CLD VIS AND WIND=

USA.gov is the U.S. government's official web portal to all federal, state and local government web resources and services.